Weather at Aviosuperficie Megolo

Public forecast

Using degrees Celsius for public forecast. Weather courtesy of forecast.io.

Closest aviation weather report (METAR) to Aviosuperficie Megolo

Closest report is Pian Rosà Heliport, 25.1 nm (46.4 km) W.

2024/02/29 23:55 (retrieved 48 minutes ago)

LIMH 292355Z AUTO 20004KT //// M09/M09 Q1007

Closest aviation forecast (TAF) to Aviosuperficie Megolo

Forecast is more than 6 hours old.

Closest forecast is Meiringen Air Base, 45.5 nm (84.3 km) N.

2024/02/29 17:00 (retrieved 8 hours ago)

TAF LSMM 291625Z 2917/0123 24005KT CAVOK BECMG 2920/2923 9999 BKN050 TEMPO 0100/0116 RA PROB40 TEMPO 0103/0111 4000 BKN014